Time;durP1;ratioP1;P1;durP2;ratioP2;P2;SDS_P1;SDS_P2;PMS_P1;PMS_P2;Temp;Humidity;BMP_temperature;BMP_pressure;BME280_temperature;BME280_humidity;BME280_pressure;Samples;Min_cycle;Max_cycle;Signal;HPM_P1;HPM_P2
2023/12/29 00:01:39;;;;;;;;;;;;;;;21.71;38.85;100547.53;5052474;28;19919;-48
2023/12/29 00:04:05;;;;;;;;;;;;;;;21.71;39.13;100546.69;5066089;28;19912;-49
2023/12/29 00:06:30;;;;;;;;;;;;;;;21.69;39.21;100536.06;5059835;28;19918;-46
2023/12/29 00:08:55;;;;;;;;;;;;;;;21.67;38.96;100538.13;5029691;28;19959;-50
2023/12/29 00:11:20;;;;;;;;;;;;;;;21.66;39.15;100536.47;5017071;28;19914;-49
2023/12/29 00:13:46;;;;;;;;;;;;;;;21.64;39.20;100534.97;5021417;28;19917;-49
2023/12/29 00:16:11;;;;;;;;;;;;;;;21.62;39.02;100531.59;5029015;28;19936;-47
2023/12/29 00:18:37;;;;;;;;;;;;;;;21.61;39.02;100538.88;5041844;28;19910;-49
2023/12/29 00:21:02;;;;;;;;;;;;;;;21.60;39.24;100529.13;5027839;28;19918;-49
2023/12/29 00:23:27;;;;;;;;;;;;;;;21.58;39.01;100536.59;5042898;28;19920;-51
2023/12/29 00:25:52;;;;;;;;;;;;;;;21.57;39.08;100528.66;5018251;28;20017;-50
2023/12/29 00:28:17;;;;;;;;;;;;;;;21.58;39.03;100519.50;5016087;28;20009;-49
2023/12/29 00:30:43;;;;;;;;;;;;;;;21.55;39.27;100519.91;5020189;28;19916;-49
2023/12/29 00:33:08;;;;;;;;;;;;;;;21.54;39.13;100507.44;5020648;28;19918;-48
2023/12/29 00:35:36;;;;;;;;;;;;;;;21.53;39.30;100514.69;5038922;28;19916;-48
2023/12/29 00:38:01;;;;;;;;;;;;;;;21.51;39.31;100510.53;5036597;28;20016;-47
2023/12/29 00:40:26;;;;;;;;;;;;;;;21.49;39.27;100515.28;5027688;28;19966;-48
2023/12/29 00:42:51;;;;;;;;;;;;;;;21.48;39.01;100510.91;5010097;28;19917;-49
2023/12/29 00:45:17;;;;;;;;;;;;;;;21.46;39.36;100511.94;5019438;28;19919;-49
2023/12/29 00:47:42;;;;;;;;;;;;;;;21.45;39.50;100520.22;5045959;28;19983;-46
2023/12/29 00:50:07;;;;;;;;;;;;;;;21.43;39.42;100516.91;5019505;28;19935;-49
2023/12/29 00:52:33;;;;;;;;;;;;;;;21.41;39.56;100527.09;5029333;28;19936;-45
2023/12/29 00:54:58;;;;;;;;;;;;;;;21.39;39.47;100529.97;5036987;28;19925;-48
2023/12/29 00:57:24;;;;;;;;;;;;;;;21.39;39.59;100523.72;5012487;28;19918;-49
2023/12/29 00:59:49;;;;;;;;;;;;;;;21.37;39.53;100510.41;5016704;28;19914;-46
2023/12/29 01:02:14;;;;;;;;;;;;;;;21.35;39.67;100520.56;5027396;28;19922;-47
2023/12/29 01:04:39;;;;;;;;;;;;;;;21.35;39.66;100503.50;5021546;28;19913;-47
2023/12/29 01:07:05;;;;;;;;;;;;;;;21.34;39.34;100491.03;5030981;28;19914;-46
2023/12/29 01:09:30;;;;;;;;;;;;;;;21.31;39.59;100478.69;5035309;28;19916;-47
2023/12/29 01:11:55;;;;;;;;;;;;;;;21.31;39.73;100483.25;5034504;28;19921;-46
2023/12/29 01:14:20;;;;;;;;;;;;;;;21.31;39.79;100486.81;5009290;28;19918;-48
2023/12/29 01:16:45;;;;;;;;;;;;;;;21.29;39.56;100477.22;5036281;28;19936;-50
2023/12/29 01:19:10;;;;;;;;;;;;;;;21.27;39.59;100477.41;5027806;28;19925;-46
2023/12/29 01:21:39;;;;;;;;;;;;;;;21.27;39.44;100484.69;5034210;28;19967;-50
2023/12/29 01:24:04;;;;;;;;;;;;;;;21.25;39.73;100481.34;5025460;28;19928;-48
2023/12/29 01:26:30;;;;;;;;;;;;;;;21.25;39.73;100478.66;5027961;28;19920;-49
2023/12/29 01:28:55;;;;;;;;;;;;;;;21.24;39.65;100480.53;5032848;28;19914;-46
2023/12/29 01:31:20;;;;;;;;;;;;;;;21.23;39.73;100481.53;5042774;28;19939;-47
2023/12/29 01:33:45;;;;;;;;;;;;;;;21.21;39.77;100480.91;5029861;28;19956;-46
2023/12/29 01:36:17;;;;;;;;;;;;;;;21.20;39.92;100473.81;5021384;28;19928;-47
2023/12/29 01:38:42;;;;;;;;;;;;;;;21.20;39.55;100471.13;5017261;28;19959;-46
2023/12/29 01:41:07;;;;;;;;;;;;;;;21.19;39.75;100472.97;5041691;28;20007;-46
2023/12/29 01:43:32;;;;;;;;;;;;;;;21.18;39.76;100473.16;5032349;28;19914;-49
2023/12/29 01:45:57;;;;;;;;;;;;;;;21.16;39.81;100475.25;5054597;28;19925;-44
2023/12/29 01:48:23;;;;;;;;;;;;;;;21.15;39.82;100466.31;5040797;28;19913;-47
2023/12/29 01:50:48;;;;;;;;;;;;;;;21.14;39.79;100463.78;5015500;28;19949;-45
2023/12/29 01:53:14;;;;;;;;;;;;;;;21.13;39.64;100468.34;5024820;28;19925;-44
2023/12/29 01:55:39;;;;;;;;;;;;;;;21.12;39.83;100455.03;5038807;28;20003;-46
2023/12/29 01:58:04;;;;;;;;;;;;;;;21.10;39.57;100451.66;5058707;28;19926;-47
2023/12/29 02:00:31;;;;;;;;;;;;;;;21.09;39.60;100456.25;5021486;28;19944;-47
2023/12/29 02:02:57;;;;;;;;;;;;;;;21.07;39.85;100466.44;5041653;28;19920;-46
2023/12/29 02:05:22;;;;;;;;;;;;;;;21.07;39.95;100476.38;5026025;28;19956;-46
2023/12/29 02:07:47;;;;;;;;;;;;;;;21.05;39.80;100464.94;5012437;28;20258;-45
2023/12/29 02:10:15;;;;;;;;;;;;;;;21.03;39.80;100470.56;5069430;28;19921;-44
2023/12/29 02:12:40;;;;;;;;;;;;;;;21.02;39.55;100466.16;5031540;28;19913;-46
2023/12/29 02:15:06;;;;;;;;;;;;;;;21.01;39.77;100472.59;5027898;28;19921;-45
2023/12/29 02:17:33;;;;;;;;;;;;;;;21.01;39.65;100466.34;5034188;28;20008;-51
2023/12/29 02:19:58;;;;;;;;;;;;;;;21.00;39.83;100462.00;5066917;28;19940;-50
2023/12/29 02:22:23;;;;;;;;;;;;;;;20.98;39.89;100462.16;5068363;28;19918;-49
2023/12/29 02:24:49;;;;;;;;;;;;;;;20.97;39.53;100468.59;5008397;28;19914;-50
2023/12/29 02:27:33;;;;;;;;;;;;;;;20.96;39.65;100458.81;5030559;28;19940;-50
2023/12/29 02:30:04;;;;;;;;;;;;;;;20.94;39.87;100468.97;5018695;28;19914;-47
2023/12/29 02:32:29;;;;;;;;;;;;;;;20.92;40.08;100463.78;5027677;28;19934;-45
2023/12/29 02:34:54;;;;;;;;;;;;;;;20.92;39.66;100460.25;5062537;28;19921;-50
2023/12/29 02:37:19;;;;;;;;;;;;;;;20.91;39.66;100466.69;5059378;28;19917;-49
2023/12/29 02:39:44;;;;;;;;;;;;;;;20.89;39.94;100456.03;5011132;28;19914;-49
2023/12/29 02:42:10;;;;;;;;;;;;;;;20.89;39.86;100480.38;5032376;28;19957;-49
2023/12/29 02:44:35;;;;;;;;;;;;;;;20.87;39.80;100474.34;5027275;28;19918;-49
2023/12/29 02:47:00;;;;;;;;;;;;;;;20.85;39.85;100470.97;5008110;28;19922;-48
2023/12/29 02:49:26;;;;;;;;;;;;;;;20.84;39.69;100477.41;5041517;28;19924;-51
2023/12/29 02:51:51;;;;;;;;;;;;;;;20.82;39.75;100463.28;5061799;28;19914;-45
2023/12/29 02:54:16;;;;;;;;;;;;;;;20.82;39.71;100475.94;5004443;28;19957;-49
2023/12/29 02:56:42;;;;;;;;;;;;;;;20.80;39.62;100470.72;5035770;28;20397;-46
2023/12/29 02:59:07;;;;;;;;;;;;;;;20.78;39.77;100467.38;5027209;28;20363;-47
2023/12/29 03:01:33;;;;;;;;;;;;;;;20.78;39.86;100466.56;5012853;28;20407;-46
2023/12/29 03:03:58;;;;;;;;;;;;;;;20.75;39.92;100470.47;5027636;28;19914;-47
2023/12/29 03:06:24;;;;;;;;;;;;;;;20.74;39.87;100468.78;5033736;28;19912;-45
2023/12/29 03:08:50;;;;;;;;;;;;;;;20.72;40.00;100462.72;5032897;28;19921;-51
2023/12/29 03:11:15;;;;;;;;;;;;;;;20.71;40.10;100463.75;5021114;28;19912;-49
2023/12/29 03:13:40;;;;;;;;;;;;;;;20.69;39.92;100465.84;5041947;28;20013;-50
2023/12/29 03:16:05;;;;;;;;;;;;;;;20.68;39.78;100456.03;5009040;28;20323;-49
2023/12/29 03:18:31;;;;;;;;;;;;;;;20.65;40.03;100465.38;5019188;28;19999;-48
2023/12/29 03:20:56;;;;;;;;;;;;;;;20.64;40.22;100449.34;5033261;28;20360;-46
2023/12/29 03:23:21;;;;;;;;;;;;;;;20.61;39.92;100444.34;5059536;28;19960;-49
2023/12/29 03:25:46;;;;;;;;;;;;;;;20.60;40.15;100445.34;5062154;28;19939;-51
2023/12/29 03:28:11;;;;;;;;;;;;;;;20.59;40.12;100449.91;5044467;28;19934;-45
2023/12/29 03:30:37;;;;;;;;;;;;;;;20.58;39.99;100445.53;5033346;28;19914;-45
2023/12/29 03:33:02;;;;;;;;;;;;;;;20.56;40.00;100455.72;5024497;28;19970;-46
2023/12/29 03:35:27;;;;;;;;;;;;;;;20.55;40.10;100456.72;5031325;28;19979;-48
2023/12/29 03:37:52;;;;;;;;;;;;;;;20.53;39.94;100464.19;5041578;28;19912;-49
2023/12/29 03:40:18;;;;;;;;;;;;;;;20.53;39.97;100469.59;5013478;28;19914;-49
2023/12/29 03:42:43;;;;;;;;;;;;;;;20.52;40.15;100467.06;5040581;28;19912;-48
2023/12/29 03:45:08;;;;;;;;;;;;;;;20.52;40.18;100467.06;5036960;28;19914;-48
2023/12/29 03:47:33;;;;;;;;;;;;;;;20.49;40.09;100476.41;5015075;28;19914;-48
2023/12/29 03:49:58;;;;;;;;;;;;;;;20.49;40.06;100472.88;5026153;28;19914;-45
2023/12/29 03:52:24;;;;;;;;;;;;;;;20.46;40.01;100496.47;5048549;28;19921;-49
2023/12/29 03:54:49;;;;;;;;;;;;;;;20.45;40.16;100486.72;5026216;28;19922;-48
2023/12/29 03:57:14;;;;;;;;;;;;;;;20.43;40.48;100491.47;5033661;28;19924;-49
2023/12/29 03:59:39;;;;;;;;;;;;;;;20.43;40.32;100491.47;5024014;28;19930;-48
2023/12/29 04:02:04;;;;;;;;;;;;;;;20.42;40.29;100491.63;5017621;28;19914;-48
2023/12/29 04:04:30;;;;;;;;;;;;;;;20.41;40.06;100487.28;5015726;28;19918;-44
2023/12/29 04:06:55;;;;;;;;;;;;;;;20.39;40.10;100468.56;5032479;28;19914;-47
2023/12/29 04:09:21;;;;;;;;;;;;;;;20.38;40.06;100477.69;5031888;28;19921;-49
2023/12/29 04:11:46;;;;;;;;;;;;;;;20.37;40.43;100456.28;5016826;28;19983;-49
2023/12/29 04:14:12;;;;;;;;;;;;;;;20.35;40.09;100456.47;5074037;28;19932;-48
2023/12/29 04:16:38;;;;;;;;;;;;;;;20.34;40.05;100457.47;5030770;28;20299;-49
2023/12/29 04:19:03;;;;;;;;;;;;;;;20.33;40.10;100463.91;5011848;28;20417;-49
2023/12/29 04:21:28;;;;;;;;;;;;;;;20.32;40.13;100475.75;5025106;28;19953;-46
2023/12/29 04:23:53;;;;;;;;;;;;;;;20.31;40.13;100465.97;5036474;28;20345;-47
2023/12/29 04:26:18;;;;;;;;;;;;;;;20.30;40.22;100452.66;5013450;28;19914;-46
2023/12/29 04:28:43;;;;;;;;;;;;;;;20.28;40.36;100458.25;5033874;28;19914;-48
2023/12/29 04:31:09;;;;;;;;;;;;;;;20.27;40.33;100456.59;5058793;28;19913;-48
2023/12/29 04:33:34;;;;;;;;;;;;;;;20.26;40.32;100451.34;5017993;28;19944;-46
2023/12/29 04:35:59;;;;;;;;;;;;;;;20.26;40.36;100462.16;5020825;28;19914;-46
2023/12/29 04:38:24;;;;;;;;;;;;;;;20.25;40.33;100460.47;5033849;28;19916;-48
2023/12/29 04:40:49;;;;;;;;;;;;;;;20.23;40.18;100461.50;5026140;28;19917;-46
2023/12/29 04:43:15;;;;;;;;;;;;;;;20.22;40.46;100459.00;5022249;28;19921;-46
2023/12/29 04:45:40;;;;;;;;;;;;;;;20.21;40.27;100460.84;5018569;28;20269;-46
2023/12/29 04:48:05;;;;;;;;;;;;;;;20.20;40.21;100472.69;5061683;28;19984;-45
2023/12/29 04:50:30;;;;;;;;;;;;;;;20.19;40.43;100476.41;5030286;28;19986;-46
2023/12/29 04:52:55;;;;;;;;;;;;;;;20.18;40.50;100471.22;5047938;28;19913;-45
2023/12/29 04:55:21;;;;;;;;;;;;;;;20.18;40.66;100482.84;5026501;28;19914;-44
2023/12/29 04:57:46;;;;;;;;;;;;;;;20.17;40.35;100475.75;5011935;28;19922;-46
2023/12/29 05:00:11;;;;;;;;;;;;;;;20.17;40.35;100466.81;5021523;28;19914;-47
2023/12/29 05:02:36;;;;;;;;;;;;;;;20.16;40.45;100465.16;5031159;28;19918;-48
2023/12/29 05:05:02;;;;;;;;;;;;;;;20.15;40.53;100471.56;5016744;28;19975;-45
2023/12/29 05:07:27;;;;;;;;;;;;;;;20.14;40.80;100472.59;5050830;28;19956;-48
2023/12/29 05:09:52;;;;;;;;;;;;;;;20.13;40.56;100469.03;5029566;28;19918;-46
2023/12/29 05:12:18;;;;;;;;;;;;;;;20.12;40.81;100470.06;5014473;28;19916;-45
2023/12/29 05:14:43;;;;;;;;;;;;;;;20.12;40.88;100463.84;5024215;28;19923;-46
2023/12/29 05:17:08;;;;;;;;;;;;;;;20.11;40.52;100456.78;5032800;28;20323;-45
2023/12/29 05:19:33;;;;;;;;;;;;;;;20.10;40.51;100463.22;5069056;28;19939;-45
2023/12/29 05:21:58;;;;;;;;;;;;;;;20.07;40.82;100461.72;5031313;28;19914;-48
2023/12/29 05:24:24;;;;;;;;;;;;;;;20.08;40.84;100470.63;5036010;28;19925;-45
2023/12/29 05:26:49;;;;;;;;;;;;;;;20.06;40.88;100462.75;5014935;28;20588;-44
2023/12/29 05:29:14;;;;;;;;;;;;;;;20.07;40.60;100466.28;5011373;28;20067;-47
2023/12/29 05:31:39;;;;;;;;;;;;;;;20.06;40.80;100459.22;5019172;28;19912;-50
2023/12/29 05:34:04;;;;;;;;;;;;;;;20.04;40.66;100475.56;5040158;28;19927;-50
2023/12/29 05:36:30;;;;;;;;;;;;;;;20.03;40.81;100463.09;5016482;28;19916;-48
2023/12/29 05:38:55;;;;;;;;;;;;;;;20.03;40.52;100470.38;5037361;28;19925;-49
2023/12/29 05:41:20;;;;;;;;;;;;;;;20.01;40.63;100478.66;5015678;28;19920;-52
2023/12/29 05:43:46;;;;;;;;;;;;;;;20.03;40.61;100489.25;5010588;28;20267;-46
2023/12/29 05:46:14;;;;;;;;;;;;;;;20.02;40.49;100504.63;5016920;28;20283;-46
2023/12/29 05:48:39;;;;;;;;;;;;;;;20.01;40.56;100500.25;5040751;28;19912;-45
2023/12/29 05:51:12;;;;;;;;;;;;;;;20.01;40.56;100491.28;5019581;28;19924;-45
2023/12/29 05:53:39;;;;;;;;;;;;;;;20.02;40.72;100510.00;5029641;28;19957;-44
2023/12/29 05:56:04;;;;;;;;;;;;;;;20.01;40.63;100505.66;5038752;28;19917;-45
2023/12/29 05:58:29;;;;;;;;;;;;;;;20.02;40.77;100493.81;5010644;28;19932;-47
2023/12/29 06:00:55;;;;;;;;;;;;;;;20.03;40.65;100489.25;5015211;28;19920;-46
2023/12/29 06:03:20;;;;;;;;;;;;;;;20.04;40.89;100494.47;5015518;28;20269;-44
2023/12/29 06:05:46;;;;;;;;;;;;;;;20.04;40.68;100494.47;5009281;28;19914;-44
2023/12/29 06:08:11;;;;;;;;;;;;;;;20.06;40.42;100494.28;5021557;28;19913;-50
2023/12/29 06:10:36;;;;;;;;;;;;;;;20.08;40.63;100494.94;5046089;28;19925;-46
2023/12/29 06:13:02;;;;;;;;;;;;;;;20.08;40.39;100500.31;5015585;28;19925;-48
2023/12/29 06:15:27;;;;;;;;;;;;;;;20.10;40.38;100492.91;5088105;28;19917;-49
2023/12/29 06:17:53;;;;;;;;;;;;;;;20.12;40.58;100498.94;5043595;28;19959;-48
2023/12/29 06:20:18;;;;;;;;;;;;;;;20.13;40.41;100487.94;5025799;28;19917;-45
2023/12/29 06:22:44;;;;;;;;;;;;;;;20.16;40.30;100481.34;5013292;28;19960;-48
2023/12/29 06:25:12;;;;;;;;;;;;;;;20.17;40.55;100488.41;5021666;28;19918;-47
2023/12/29 06:27:38;;;;;;;;;;;;;;;20.18;40.45;100482.84;5039507;28;19917;-49
2023/12/29 06:30:04;;;;;;;;;;;;;;;20.21;40.14;100482.44;5016677;28;19948;-47
2023/12/29 06:32:30;;;;;;;;;;;;;;;20.23;40.16;100490.38;5052413;28;19934;-48
2023/12/29 06:34:56;;;;;;;;;;;;;;;20.26;40.43;100483.75;5020785;28;19992;-49
2023/12/29 06:37:21;;;;;;;;;;;;;;;20.29;40.42;100496.88;5005575;28;19914;-48
2023/12/29 06:39:46;;;;;;;;;;;;;;;20.31;40.33;100481.34;5015325;28;20288;-46
2023/12/29 06:42:11;;;;;;;;;;;;;;;20.33;40.39;100484.69;5016657;28;19913;-49
2023/12/29 06:44:36;;;;;;;;;;;;;;;20.36;40.07;100482.44;5002795;28;20283;-50
2023/12/29 06:47:04;;;;;;;;;;;;;;;20.39;40.19;100468.56;5053218;28;19913;-47
2023/12/29 06:49:30;;;;;;;;;;;;;;;20.42;40.41;100456.53;5021613;28;19924;-46
2023/12/29 06:51:55;;;;;;;;;;;;;;;20.45;40.47;100462.41;5012013;28;19953;-50
2023/12/29 06:54:20;;;;;;;;;;;;;;;20.47;40.43;100457.66;5018440;28;19922;-50
2023/12/29 06:56:45;;;;;;;;;;;;;;;20.51;40.64;100465.41;5033933;28;19944;-46
2023/12/29 06:59:10;;;;;;;;;;;;;;;20.53;40.69;100458.78;5004480;28;19925;-50
2023/12/29 07:01:38;;;;;;;;;;;;;;;20.56;40.61;100469.22;5027433;28;20182;-50
2023/12/29 07:04:03;;;;;;;;;;;;;;;20.59;40.38;100458.00;5027933;28;19908;-45
2023/12/29 07:06:29;;;;;;;;;;;;;;;20.62;40.19;100454.09;5023058;28;19921;-49
2023/12/29 07:08:54;;;;;;;;;;;;;;;20.65;40.55;100448.34;5008073;28;19913;-49
2023/12/29 07:11:19;;;;;;;;;;;;;;;20.68;40.71;100456.88;5020282;28;19918;-49
2023/12/29 07:13:44;;;;;;;;;;;;;;;20.71;40.40;100459.19;5039149;28;19926;-49
2023/12/29 07:16:10;;;;;;;;;;;;;;;20.76;40.23;100452.38;5006889;28;19921;-45
2023/12/29 07:18:35;;;;;;;;;;;;;;;20.78;40.37;100456.56;5043601;28;19916;-48
2023/12/29 07:21:00;;;;;;;;;;;;;;;20.82;40.10;100457.03;5018940;28;19913;-50
2023/12/29 07:23:26;;;;;;;;;;;;;;;20.83;40.03;100458.69;5006913;28;19921;-49
2023/12/29 07:25:51;;;;;;;;;;;;;;;20.87;40.28;100468.09;5010012;28;20416;-50
2023/12/29 07:28:16;;;;;;;;;;;;;;;20.89;40.16;100468.72;5016980;28;20453;-50
2023/12/29 07:30:41;;;;;;;;;;;;;;;20.92;40.19;100466.47;5000854;28;20348;-49
2023/12/29 07:33:06;;;;;;;;;;;;;;;20.95;40.30;100465.28;5007906;28;20317;-49
2023/12/29 07:35:32;;;;;;;;;;;;;;;20.97;40.08;100474.00;5021789;28;19971;-46
2023/12/29 07:37:57;;;;;;;;;;;;;;;21.01;40.17;100466.34;5007249;28;19918;-48
2023/12/29 07:40:22;;;;;;;;;;;;;;;21.03;39.97;100473.25;5008814;28;19967;-45
2023/12/29 07:42:50;;;;;;;;;;;;;;;21.06;40.12;100472.00;5012195;28;19913;-48
2023/12/29 07:45:15;;;;;;;;;;;;;;;21.07;40.20;100470.97;5008821;28;19921;-50
2023/12/29 07:47:40;;;;;;;;;;;;;;;21.08;40.35;100462.69;5001001;28;20009;-46
2023/12/29 07:50:06;;;;;;;;;;;;;;;21.11;40.45;100461.44;5017676;28;20376;-49
2023/12/29 07:52:31;;;;;;;;;;;;;;;21.11;40.13;100456.03;5014288;28;19965;-45
2023/12/29 07:54:56;;;;;;;;;;;;;;;21.12;39.97;100453.16;5001285;28;19929;-49
2023/12/29 07:57:21;;;;;;;;;;;;;;;21.13;40.32;100462.94;5017261;28;19988;-45
2023/12/29 07:59:46;;;;;;;;;;;;;;;21.15;40.30;100463.59;5006392;28;20003;-48
2023/12/29 08:02:11;;;;;;;;;;;;;;;21.15;40.30;100460.91;5085304;28;19926;-49
2023/12/29 08:04:38;;;;;;;;;;;;;;;21.17;40.28;100466.94;5071459;28;20327;-49
2023/12/29 08:07:03;;;;;;;;;;;;;;;21.20;39.93;100463.00;5015342;28;20419;-49
2023/12/29 08:09:28;;;;;;;;;;;;;;;21.21;40.28;100468.22;5003303;28;19918;-48
2023/12/29 08:11:53;;;;;;;;;;;;;;;21.22;39.90;100472.59;5006914;28;19922;-46
2023/12/29 08:14:18;;;;;;;;;;;;;;;21.23;39.97;100474.25;5025084;28;19937;-46
2023/12/29 08:16:44;;;;;;;;;;;;;;;21.24;40.10;100480.53;5009733;28;20017;-49
2023/12/29 08:19:10;;;;;;;;;;;;;;;21.25;40.08;100484.06;5015797;28;20347;-44
2023/12/29 08:21:35;;;;;;;;;;;;;;;21.26;39.78;100474.91;5010184;28;19921;-46
2023/12/29 08:24:00;;;;;;;;;;;;;;;21.26;39.97;100497.38;5066280;28;19966;-48
2023/12/29 08:26:25;;;;;;;;;;;;;;;21.26;39.70;100483.84;5059545;28;19914;-49
2023/12/29 08:28:51;;;;;;;;;;;;;;;21.28;39.88;100481.81;5047916;28;19921;-45
2023/12/29 08:31:18;;;;;;;;;;;;;;;21.30;39.64;100485.13;5019634;28;19918;-44
2023/12/29 08:33:43;;;;;;;;;;;;;;;21.31;39.43;100485.97;5015268;28;19916;-49
2023/12/29 08:36:08;;;;;;;;;;;;;;;21.30;39.55;100484.31;5026665;28;19939;-47
2023/12/29 08:38:33;;;;;;;;;;;;;;;21.31;39.38;100485.97;5035534;28;19913;-46
2023/12/29 08:40:59;;;;;;;;;;;;;;;21.31;39.68;100480.56;5030453;28;19921;-44
2023/12/29 08:43:24;;;;;;;;;;;;;;;21.32;39.98;100471.44;5043647;28;19932;-46
2023/12/29 08:45:49;;;;;;;;;;;;;;;21.34;39.89;100472.09;5026794;28;19988;-47
2023/12/29 08:48:15;;;;;;;;;;;;;;;21.35;39.95;100466.47;5011068;28;19921;-46
2023/12/29 08:50:40;;;;;;;;;;;;;;;21.36;40.13;100467.31;5087902;28;19920;-44
2023/12/29 08:53:06;;;;;;;;;;;;;;;21.37;40.03;100475.25;5048726;28;19922;-49
2023/12/29 08:55:31;;;;;;;;;;;;;;;21.38;39.90;100482.31;5011835;28;20234;-49
2023/12/29 08:57:56;;;;;;;;;;;;;;;21.39;39.96;100477.75;5031090;28;19943;-47
2023/12/29 09:00:22;;;;;;;;;;;;;;;21.39;39.94;100473.19;5037642;28;19917;-46
2023/12/29 09:02:47;;;;;;;;;;;;;;;21.40;40.02;100472.13;5014631;28;20280;-44
2023/12/29 09:05:12;;;;;;;;;;;;;;;21.42;39.80;100477.38;5016479;28;19935;-46
2023/12/29 09:07:37;;;;;;;;;;;;;;;21.42;39.63;100490.88;5036911;28;19945;-46
2023/12/29 09:10:03;;;;;;;;;;;;;;;21.42;39.95;100471.97;5028793;28;19947;-45
2023/12/29 09:12:28;;;;;;;;;;;;;;;21.43;39.55;100479.03;5022745;28;20011;-48
2023/12/29 09:14:53;;;;;;;;;;;;;;;21.44;39.80;100484.25;5027214;28;20319;-44
2023/12/29 09:17:18;;;;;;;;;;;;;;;21.42;39.80;100480.91;5022498;28;19914;-46
2023/12/29 09:19:44;;;;;;;;;;;;;;;21.44;39.75;100486.09;5011284;28;19918;-49
2023/12/29 09:22:09;;;;;;;;;;;;;;;21.43;39.62;100482.56;5033265;28;19956;-45
2023/12/29 09:24:35;;;;;;;;;;;;;;;21.44;39.57;100478.00;5038251;28;19916;-46
2023/12/29 09:27:00;;;;;;;;;;;;;;;21.44;39.42;100478.00;5017779;28;19921;-45
2023/12/29 09:29:25;;;;;;;;;;;;;;;21.43;39.56;100476.34;5027822;28;19947;-48
2023/12/29 09:31:50;;;;;;;;;;;;;;;21.44;39.62;100478.81;5052064;28;19920;-46
2023/12/29 09:34:15;;;;;;;;;;;;;;;21.44;39.53;100484.25;5009341;28;19957;-43
2023/12/29 09:36:41;;;;;;;;;;;;;;;21.44;39.58;100467.19;5037249;28;19918;-44
2023/12/29 09:39:06;;;;;;;;;;;;;;;21.43;39.70;100468.22;5038672;28;19965;-44
2023/12/29 09:41:31;;;;;;;;;;;;;;;21.35;39.20;100457.53;5011770;28;19921;-44
2023/12/29 09:43:56;;;;;;;;;;;;;;;21.42;39.50;100472.78;5028385;28;19924;-44
2023/12/29 09:46:23;;;;;;;;;;;;;;;21.41;39.71;100476.53;5041908;28;19924;-44
2023/12/29 09:48:48;;;;;;;;;;;;;;;21.40;39.33;100466.72;5067263;28;19940;-44
2023/12/29 09:51:16;;;;;;;;;;;;;;;21.39;39.74;100462.34;5034931;28;19913;-46
2023/12/29 09:53:42;;;;;;;;;;;;;;;21.38;39.65;100474.22;5062845;28;19925;-46
2023/12/29 09:56:10;;;;;;;;;;;;;;;21.38;39.56;100476.09;5067251;28;19918;-49
2023/12/29 09:58:38;;;;;;;;;;;;;;;21.38;39.46;100484.19;5014160;28;19930;-48
2023/12/29 10:01:03;;;;;;;;;;;;;;;21.37;39.42;100485.25;5085197;28;19971;-49
2023/12/29 10:03:28;;;;;;;;;;;;;;;21.36;39.63;100483.53;5070516;28;20364;-46
2023/12/29 10:05:54;;;;;;;;;;;;;;;21.35;39.61;100492.69;5050152;28;19948;-48
2023/12/29 10:08:19;;;;;;;;;;;;;;;21.33;39.68;100490.19;5055071;28;20361;-49
2023/12/29 10:10:46;;;;;;;;;;;;;;;21.33;39.71;100492.91;5073393;28;19981;-49
2023/12/29 10:13:11;;;;;;;;;;;;;;;21.31;39.80;100478.69;5071156;28;19919;-48
2023/12/29 10:15:36;;;;;;;;;;;;;;;21.31;39.66;100464.34;5020369;28;19916;-46
2023/12/29 10:18:18;;;;;;;;;;;;;;;21.30;39.67;100479.72;5054156;28;19912;-45
2023/12/29 10:20:49;;;;;;;;;;;;;;;21.30;39.79;100468.06;5016975;28;19979;-46
2023/12/29 10:23:19;;;;;;;;;;;;;;;21.30;39.62;100487.00;5031100;28;19914;-47
2023/12/29 10:25:44;;;;;;;;;;;;;;;21.29;39.58;100488.88;5026125;28;19917;-47
2023/12/29 10:28:09;;;;;;;;;;;;;;;21.29;39.42;100488.88;5079723;28;20153;-47
2023/12/29 10:30:34;;;;;;;;;;;;;;;21.28;39.43;100484.50;5064694;28;19925;-49
2023/12/29 10:33:00;;;;;;;;;;;;;;;21.28;39.63;100481.81;5018319;28;19914;-45
2023/12/29 10:35:25;;;;;;;;;;;;;;;21.29;39.77;100488.03;5016333;28;20343;-46
2023/12/29 10:37:51;;;;;;;;;;;;;;;21.29;39.76;100506.97;5024332;28;19914;-47
2023/12/29 10:40:16;;;;;;;;;;;;;;;21.30;39.72;100508.63;5038919;28;19948;-48
2023/12/29 10:42:51;;;;;;;;;;;;;;;21.31;39.32;100505.72;5015941;28;19921;-47
2023/12/29 10:45:16;;;;;;;;;;;;;;;21.33;39.66;100498.31;5069760;28;20006;-49
2023/12/29 10:47:44;;;;;;;;;;;;;;;21.35;39.57;100504.34;5023749;28;19912;-48
2023/12/29 10:50:09;;;;;;;;;;;;;;;21.36;39.63;100497.06;5020305;28;20293;-45
2023/12/29 10:52:37;;;;;;;;;;;;;;;21.36;39.53;100494.34;5020212;28;19932;-43
2023/12/29 10:55:05;;;;;;;;;;;;;;;21.38;39.58;100505.84;5037524;28;19924;-46
2023/12/29 10:57:30;;;;;;;;;;;;;;;21.38;39.64;100501.25;5027191;28;19917;-45
2023/12/29 10:59:56;;;;;;;;;;;;;;;21.41;39.29;100502.75;5010777;28;19920;-50
2023/12/29 11:02:21;;;;;;;;;;;;;;;21.41;39.60;100503.59;5028502;28;19919;-48
2023/12/29 11:04:46;;;;;;;;;;;;;;;21.43;39.35;100504.22;5028487;28;19936;-48
2023/12/29 11:07:12;;;;;;;;;;;;;;;21.45;39.59;100495.88;5009336;28;19924;-46
2023/12/29 11:09:37;;;;;;;;;;;;;;;21.46;39.55;100497.59;5023350;28;20013;-44
2023/12/29 11:12:03;;;;;;;;;;;;;;;21.48;39.28;100514.44;5034476;28;19918;-47
2023/12/29 11:14:28;;;;;;;;;;;;;;;21.50;39.15;100515.09;5007373;28;19928;-48
2023/12/29 11:16:58;;;;;;;;;;;;;;;21.52;39.47;100493.25;5071835;28;19935;-44
2023/12/29 11:19:23;;;;;;;;;;;;;;;21.55;39.24;100501.81;5022803;28;19914;-45
2023/12/29 11:21:49;;;;;;;;;;;;;;;21.55;39.12;100501.81;5010869;28;19936;-45
2023/12/29 11:24:14;;;;;;;;;;;;;;;21.56;39.22;100498.06;5074677;28;19914;-45
2023/12/29 11:26:40;;;;;;;;;;;;;;;21.59;38.96;100500.41;5029819;28;19923;-48
2023/12/29 11:29:05;;;;;;;;;;;;;;;21.62;39.18;100497.31;5068861;28;19940;-44
2023/12/29 11:31:30;;;;;;;;;;;;;;;21.64;38.96;100507.91;5071115;28;20340;-46
2023/12/29 11:34:16;;;;;;;;;;;;;;;21.67;38.78;100502.13;5067263;28;19935;-44
2023/12/29 11:36:43;;;;;;;;;;;;;;;21.69;38.73;100509.00;5014248;28;19916;-46
2023/12/29 11:39:27;;;;;;;;;;;;;;;21.71;38.70;100514.22;5066529;28;19924;-46
2023/12/29 11:42:03;;;;;;;;;;;;;;;21.71;38.94;100525.88;5035881;28;19916;-46
2023/12/29 11:44:29;;;;;;;;;;;;;;;21.72;38.66;100529.41;5067704;28;20321;-43
2023/12/29 11:46:55;;;;;;;;;;;;;;;21.71;38.81;100534.00;5036935;28;19979;-47
2023/12/29 11:49:20;;;;;;;;;;;;;;;21.73;38.54;100522.13;5043328;28;19920;-45
2023/12/29 11:51:49;;;;;;;;;;;;;;;21.74;38.84;100521.09;5022001;28;19917;-45
2023/12/29 11:54:26;;;;;;;;;;;;;;;21.73;38.51;100522.97;5013901;28;20114;-45
2023/12/29 11:56:55;;;;;;;;;;;;;;;21.76;38.58;100519.88;5034162;28;19919;-45
2023/12/29 11:59:20;;;;;;;;;;;;;;;21.80;38.81;100520.31;5071912;28;19922;-47
2023/12/29 12:01:46;;;;;;;;;;;;;;;21.83;38.52;100515.31;5012128;28;19928;-44
2023/12/29 12:04:30;;;;;;;;;;;;;;;21.86;38.85;100512.22;5048616;28;19949;-43
2023/12/29 12:06:55;;;;;;;;;;;;;;;21.90;38.67;100518.94;5061525;28;19925;-44
2023/12/29 12:09:26;;;;;;;;;;;;;;;21.94;38.31;100524.78;5022213;28;19977;-44
2023/12/29 12:11:51;;;;;;;;;;;;;;;21.96;38.37;100525.41;5016305;28;19918;-44
2023/12/29 12:14:17;;;;;;;;;;;;;;;;;;5024880;28;19921;-45
2023/12/29 12:16:42;;;;;;;;;;;;;;;22.00;38.36;100510.44;5029287;28;19938;-45
2023/12/29 12:19:07;;;;;;;;;;;;;;;22.02;38.21;100524.63;5034202;28;19963;-44
2023/12/29 12:21:32;;;;;;;;;;;;;;;22.06;38.47;100527.78;5031491;28;19977;-44
2023/12/29 12:23:57;;;;;;;;;;;;;;;22.09;38.38;100521.94;5010991;28;19914;-45
2023/12/29 12:26:22;;;;;;;;;;;;;;;22.12;38.07;100519.72;5013727;28;20014;-44
2023/12/29 12:28:51;;;;;;;;;;;;;;;22.16;38.13;100514.75;5073570;28;19917;-43
2023/12/29 12:31:18;;;;;;;;;;;;;;;22.18;37.98;100513.53;5011940;28;19936;-44